createdAt,value
2023-01-12T00:01:31.973Z,95471.34
2023-01-12T00:03:58.837Z,95470.56
2023-01-12T00:06:25.807Z,95490.09
2023-01-12T00:08:53.141Z,95477.72
2023-01-12T00:11:20.609Z,95476.91
2023-01-12T00:13:48.005Z,95478.22
2023-01-12T00:16:35.000Z,95479.44
2023-01-12T00:19:07.107Z,95476.19
2023-01-12T00:21:45.021Z,95473.63
2023-01-12T00:24:11.757Z,95461.06
2023-01-12T00:26:38.300Z,95457.69
2023-01-12T00:29:04.890Z,95472.28
2023-01-12T00:31:31.646Z,95473.91
2023-01-12T00:33:58.251Z,95472.16
2023-01-12T00:36:24.806Z,95470.09
2023-01-12T00:38:51.424Z,95471.53
2023-01-12T00:41:37.996Z,95470.91
2023-01-12T00:44:24.808Z,95470.22
2023-01-12T00:46:51.471Z,95471.03
2023-01-12T00:49:18.113Z,95474.28
2023-01-12T00:51:44.717Z,95474.53
2023-01-12T00:54:11.524Z,95469.19
2023-01-12T00:56:39.386Z,95466.81
2023-01-12T00:59:06.374Z,95461.81
2023-01-12T01:01:34.452Z,95459.66
2023-01-12T01:04:01.555Z,95462.59
2023-01-12T01:06:28.136Z,95456.19
2023-01-12T01:08:54.705Z,95457.81
2023-01-12T01:11:21.284Z,95473.53
2023-01-12T01:13:49.051Z,95474.13
2023-01-12T01:16:17.249Z,95474.69
2023-01-12T01:18:44.085Z,95485.81
2023-01-12T01:21:12.613Z,95485.28
2023-01-12T01:23:40.590Z,95478.63
2023-01-12T01:26:16.795Z,95488.59
2023-01-12T01:28:44.576Z,95488.94
2023-01-12T01:31:17.387Z,95485.31
2023-01-12T01:33:44.371Z,95480.78
2023-01-12T01:36:11.938Z,95483.59
2023-01-12T01:38:39.178Z,95477.50
2023-01-12T01:41:07.316Z,95481.94
2023-01-12T01:43:51.295Z,95476.31
2023-01-12T01:46:43.593Z,95470.47
2023-01-12T01:49:29.162Z,95472.16
2023-01-12T01:52:07.708Z,95465.50
2023-01-12T01:54:40.801Z,95472.06
2023-01-12T01:57:09.734Z,95465.03
2023-01-12T01:59:38.729Z,95473.91
2023-01-12T02:02:06.270Z,95466.13
2023-01-12T02:04:33.172Z,95460.56
2023-01-12T02:07:02.124Z,95447.06
2023-01-12T02:09:30.751Z,95446.47
2023-01-12T02:12:15.859Z,95444.53
2023-01-12T02:15:04.603Z,95441.13
2023-01-12T02:17:49.610Z,95444.28
2023-01-12T02:20:28.790Z,95440.88
2023-01-12T02:23:26.414Z,95438.78
2023-01-12T02:26:28.936Z,95449.31
2023-01-12T02:29:29.281Z,95450.28
2023-01-12T02:32:14.137Z,95445.91
2023-01-12T02:34:53.979Z,95447.13
2023-01-12T02:37:42.050Z,95444.69
2023-01-12T02:40:29.611Z,95443.03
2023-01-12T02:43:03.423Z,95450.47
2023-01-12T02:45:48.439Z,95449.78
2023-01-12T02:48:23.734Z,95441.66
2023-01-12T02:51:33.384Z,95447.75
2023-01-12T02:54:04.444Z,95439.00
2023-01-12T02:56:38.548Z,95441.97
2023-01-12T02:59:11.101Z,95432.41
2023-01-12T03:01:37.920Z,95435.63
2023-01-12T03:04:07.725Z,95434.94
2023-01-12T03:06:42.684Z,95435.28
2023-01-12T03:09:10.037Z,95442.56
2023-01-12T03:11:40.543Z,95447.88
2023-01-12T03:14:08.926Z,95432.88
2023-01-12T03:16:38.373Z,95440.28
2023-01-12T03:19:13.733Z,95433.56
2023-01-12T03:21:47.347Z,95419.06
2023-01-12T03:24:25.380Z,95415.31
2023-01-12T03:27:08.069Z,95414.00
2023-01-12T03:29:38.209Z,95406.38
2023-01-12T03:32:06.439Z,95411.47
2023-01-12T03:34:34.508Z,95411.44
2023-01-12T03:37:12.838Z,95412.03
2023-01-12T03:39:48.506Z,95419.75
2023-01-12T03:42:26.336Z,95425.19
2023-01-12T03:45:28.576Z,95417.63
2023-01-12T03:47:58.663Z,95414.84
2023-01-12T03:50:30.661Z,95415.84
2023-01-12T03:53:02.171Z,95415.75
2023-01-12T03:55:32.018Z,95416.38
2023-01-12T03:57:59.459Z,95404.97
2023-01-12T04:00:27.698Z,95403.31
2023-01-12T04:03:24.639Z,95409.19
2023-01-12T04:05:51.289Z,95400.75
2023-01-12T04:08:18.161Z,95408.28
2023-01-12T04:10:44.759Z,95401.47
2023-01-12T04:13:11.361Z,95405.53
2023-01-12T04:15:42.335Z,95399.31
2023-01-12T04:18:09.922Z,95392.28
2023-01-12T04:20:36.841Z,95401.88
2023-01-12T04:23:03.604Z,95389.94
2023-01-12T04:25:31.399Z,95382.81
2023-01-12T04:28:04.979Z,95388.84
2023-01-12T04:30:33.250Z,95383.31
2023-01-12T04:33:01.159Z,95386.47
2023-01-12T04:35:27.828Z,95383.41
2023-01-12T04:37:54.865Z,95384.19
2023-01-12T04:40:21.517Z,95384.94
2023-01-12T04:43:10.974Z,95382.41
2023-01-12T04:45:43.506Z,95385.56
2023-01-12T04:48:13.093Z,95388.63
2023-01-12T04:50:40.814Z,95381.38
2023-01-12T04:53:09.566Z,95379.69
2023-01-12T04:55:38.077Z,95376.94
2023-01-12T04:58:04.750Z,95382.25
2023-01-12T05:00:31.463Z,95386.72
2023-01-12T05:03:02.065Z,95393.47
2023-01-12T05:05:32.949Z,95393.34
2023-01-12T05:08:20.102Z,95394.69
2023-01-12T05:11:05.248Z,95388.13
2023-01-12T05:13:32.231Z,95387.72
2023-01-12T05:16:11.514Z,95380.84
2023-01-12T05:18:38.177Z,95383.91
2023-01-12T05:21:05.104Z,95376.09
2023-01-12T05:23:31.694Z,95376.63
2023-01-12T05:26:02.505Z,95381.81
2023-01-12T05:28:30.257Z,95373.16
2023-01-12T05:31:09.475Z,95375.81
2023-01-12T05:33:38.323Z,95380.13
2023-01-12T05:36:10.025Z,95386.94
2023-01-12T05:38:36.838Z,95387.13
2023-01-12T05:41:05.166Z,95392.03
2023-01-12T05:43:50.448Z,95390.19
2023-01-12T05:46:21.094Z,95392.56
2023-01-12T05:48:48.143Z,95379.91
2023-01-12T05:51:15.623Z,95380.19
2023-01-12T05:53:42.271Z,95375.19
2023-01-12T05:56:16.169Z,95383.63
2023-01-12T05:58:42.846Z,95378.03
2023-01-12T06:01:10.549Z,95378.25
2023-01-12T06:03:37.603Z,95372.53
2023-01-12T06:06:04.686Z,95370.59
2023-01-12T06:08:31.488Z,95383.66
2023-01-12T06:11:04.258Z,95376.81
2023-01-12T06:13:49.152Z,95371.53
2023-01-12T06:16:15.980Z,95370.38
2023-01-12T06:18:42.595Z,95368.16
2023-01-12T06:21:10.319Z,95371.81
2023-01-12T06:23:37.183Z,95370.19
2023-01-12T06:26:06.048Z,95380.31
2023-01-12T06:28:32.731Z,95376.97
2023-01-12T06:31:01.169Z,95378.19
2023-01-12T06:33:28.644Z,95375.03
2023-01-12T06:35:56.116Z,95389.28
2023-01-12T06:38:25.284Z,95391.88
2023-01-12T06:40:52.071Z,95400.16
2023-01-12T06:43:19.189Z,95389.09
2023-01-12T06:45:46.019Z,95388.00
2023-01-12T06:48:12.616Z,95389.31
2023-01-12T06:50:39.231Z,95394.13
2023-01-12T06:53:07.149Z,95400.25
2023-01-12T06:55:33.803Z,95393.81
2023-01-12T06:58:04.441Z,95394.63
2023-01-12T07:00:31.989Z,95394.72
2023-01-12T07:02:58.751Z,95409.44
2023-01-12T07:05:25.499Z,95394.84
2023-01-12T07:07:58.601Z,95397.06
2023-01-12T07:10:25.243Z,95398.91
2023-01-12T07:12:51.919Z,95392.88
2023-01-12T07:15:18.536Z,95389.31
2023-01-12T07:17:45.148Z,95387.16
2023-01-12T07:20:11.931Z,95392.47
2023-01-12T07:22:39.364Z,95394.50
2023-01-12T07:25:06.382Z,95393.28
2023-01-12T07:27:32.928Z,95384.22
2023-01-12T07:29:59.519Z,95390.72
2023-01-12T07:32:27.422Z,95386.25
2023-01-12T07:34:54.069Z,95384.41
2023-01-12T07:37:20.661Z,95385.72
2023-01-12T07:39:47.251Z,95384.25
2023-01-12T07:42:26.039Z,95379.19
2023-01-12T07:44:53.153Z,95378.97
2023-01-12T07:47:19.995Z,95375.41
2023-01-12T07:49:46.782Z,95381.44
2023-01-12T07:52:14.188Z,95375.59
2023-01-12T07:54:40.837Z,95368.44
2023-01-12T07:57:10.557Z,95369.88
2023-01-12T07:59:37.162Z,95362.78
2023-01-12T08:02:04.615Z,95349.19
2023-01-12T08:04:31.359Z,95342.91
2023-01-12T08:06:57.959Z,95346.03
2023-01-12T08:09:24.654Z,95334.41
2023-01-12T08:11:51.269Z,95340.94
2023-01-12T08:14:33.399Z,95326.16
2023-01-12T08:17:02.269Z,95319.97
2023-01-12T08:19:37.191Z,95320.22
2023-01-12T08:22:07.970Z,95317.66
2023-01-12T08:24:40.083Z,95319.50
2023-01-12T08:27:09.019Z,95326.13
2023-01-12T08:29:44.125Z,95322.28
2023-01-12T08:32:13.358Z,95309.28
2023-01-12T08:34:42.153Z,95335.94
2023-01-12T08:37:12.868Z,95325.50
2023-01-12T08:39:39.961Z,95318.16
2023-01-12T08:42:07.064Z,95332.72
2023-01-12T08:44:36.413Z,95325.63
2023-01-12T08:47:05.119Z,95328.06
2023-01-12T08:49:33.604Z,95338.06
2023-01-12T08:52:00.320Z,95332.13
2023-01-12T08:54:27.131Z,95345.63
2023-01-12T08:56:54.738Z,95334.81
2023-01-12T08:59:21.506Z,95334.22
2023-01-12T09:01:48.750Z,95334.69
2023-01-12T09:04:15.552Z,95329.59
2023-01-12T09:06:45.025Z,95334.81
2023-01-12T09:09:15.515Z,95341.91
2023-01-12T09:11:43.402Z,95323.63
2023-01-12T09:14:11.913Z,95330.00
2023-01-12T09:16:38.821Z,95325.22
2023-01-12T09:19:05.900Z,95332.69
2023-01-12T09:21:33.276Z,95327.63
2023-01-12T09:23:59.897Z,95332.28
2023-01-12T09:26:32.308Z,95329.63
2023-01-12T09:29:00.101Z,95331.31
2023-01-12T09:31:28.381Z,95324.97
2023-01-12T09:33:55.246Z,95316.63
2023-01-12T09:36:33.599Z,95312.28
2023-01-12T09:39:01.487Z,95325.00
2023-01-12T09:41:50.537Z,95315.47
2023-01-12T09:44:47.219Z,95324.06
2023-01-12T09:47:36.449Z,95318.16
2023-01-12T09:50:16.424Z,95318.97
2023-01-12T09:52:58.042Z,95318.28
2023-01-12T09:55:27.530Z,95317.53
2023-01-12T09:58:27.033Z,95309.50
2023-01-12T10:00:59.352Z,95300.03
2023-01-12T10:03:29.384Z,95293.97
2023-01-12T10:05:58.875Z,95287.16
2023-01-12T10:08:36.535Z,95286.13
2023-01-12T10:11:12.119Z,95287.06
2023-01-12T10:13:52.430Z,95291.06
2023-01-12T10:16:28.736Z,95298.34
2023-01-12T10:19:01.243Z,95295.75
2023-01-12T10:21:31.784Z,95293.94
2023-01-12T10:23:58.623Z,95296.16
2023-01-12T10:26:29.034Z,95297.81
2023-01-12T10:28:56.282Z,95298.19
2023-01-12T10:31:25.428Z,95282.88
2023-01-12T10:34:07.032Z,95284.09
2023-01-12T10:36:57.972Z,95280.16
2023-01-12T10:39:39.267Z,95279.41
2023-01-12T10:42:42.286Z,95266.16
2023-01-12T10:45:17.327Z,95262.66
2023-01-12T10:47:45.880Z,95272.78
2023-01-12T10:50:23.374Z,95254.56
2023-01-12T10:53:00.417Z,95257.16
2023-01-12T10:55:34.851Z,95266.50
2023-01-12T10:58:01.877Z,95263.72
2023-01-12T11:00:29.873Z,95256.72
2023-01-12T11:02:56.822Z,95257.22
2023-01-12T11:05:31.432Z,95249.91
2023-01-12T11:07:58.446Z,95254.78
2023-01-12T11:10:35.701Z,95251.03
2023-01-12T11:13:06.238Z,95242.91
2023-01-12T11:15:38.915Z,95253.16
2023-01-12T11:18:29.889Z,95251.34
2023-01-12T11:21:10.751Z,95246.38
2023-01-12T11:24:10.942Z,95250.03
2023-01-12T11:26:49.271Z,95244.31
2023-01-12T11:29:34.120Z,95235.13
2023-01-12T11:32:08.581Z,95230.53
2023-01-12T11:34:41.439Z,95239.59
2023-01-12T11:37:13.716Z,95228.44
2023-01-12T11:39:42.451Z,95225.63
2023-01-12T11:42:40.074Z,95236.59
2023-01-12T11:45:09.559Z,95238.47
2023-01-12T11:47:44.572Z,95231.34
2023-01-12T11:50:21.755Z,95230.94
2023-01-12T11:52:48.397Z,95230.09
2023-01-12T11:55:21.095Z,95229.97
2023-01-12T11:57:58.348Z,95226.56
2023-01-12T12:00:35.249Z,95221.66
2023-01-12T12:03:40.373Z,95214.75
2023-01-12T12:06:28.987Z,95210.44
2023-01-12T12:09:17.254Z,95213.97
2023-01-12T12:11:52.815Z,95230.91
2023-01-12T12:14:31.523Z,95230.47
2023-01-12T12:17:20.598Z,95226.81
2023-01-12T12:20:12.464Z,95225.84
2023-01-12T12:22:57.284Z,95219.34
2023-01-12T12:25:47.870Z,95212.78
2023-01-12T12:28:30.024Z,95213.22
2023-01-12T12:31:07.857Z,95190.59
2023-01-12T12:33:52.627Z,95187.91
2023-01-12T12:37:04.358Z,95191.75
2023-01-12T12:39:49.691Z,95193.59
2023-01-12T12:43:04.408Z,95201.94
2023-01-12T12:45:48.341Z,95174.66
2023-01-12T12:48:29.832Z,95186.13
2023-01-12T12:51:08.950Z,95176.25
2023-01-12T12:53:45.410Z,95185.28
2023-01-12T12:56:15.821Z,95182.22
2023-01-12T12:58:46.673Z,95187.53
2023-01-12T13:01:25.404Z,95189.84
2023-01-12T13:03:54.691Z,95191.56
2023-01-12T13:06:39.576Z,95194.28
2023-01-12T13:09:10.523Z,95186.84
2023-01-12T13:11:54.653Z,95196.19
2023-01-12T13:14:26.953Z,95179.56
2023-01-12T13:16:55.821Z,95178.84
2023-01-12T13:19:36.536Z,95176.94
2023-01-12T13:22:40.670Z,95188.78
2023-01-12T13:25:10.029Z,95180.22
2023-01-12T13:28:01.132Z,95176.16
2023-01-12T13:30:30.741Z,95181.09
2023-01-12T13:33:23.355Z,95165.00
2023-01-12T13:35:50.003Z,95173.66
2023-01-12T13:38:43.665Z,95173.50
2023-01-12T13:41:13.245Z,95181.78
2023-01-12T13:43:57.962Z,95174.59
2023-01-12T13:46:28.413Z,95172.16
2023-01-12T13:48:55.891Z,95172.97
2023-01-12T13:51:40.751Z,95192.44
2023-01-12T13:54:11.815Z,95181.44
2023-01-12T13:56:39.257Z,95178.03
2023-01-12T13:59:08.067Z,95187.94
2023-01-12T14:01:41.225Z,95195.38
2023-01-12T14:04:14.146Z,95191.38
2023-01-12T14:06:55.928Z,95184.66
2023-01-12T14:09:36.468Z,95190.47
2023-01-12T14:12:08.947Z,95197.38
2023-01-12T14:15:32.080Z,95198.50
2023-01-12T14:18:09.119Z,95202.91
2023-01-12T14:20:46.777Z,95197.66
2023-01-12T14:23:28.582Z,95191.94
2023-01-12T14:26:04.047Z,95186.13
2023-01-12T14:28:31.650Z,95187.44
2023-01-12T14:30:58.683Z,95181.34
2023-01-12T14:33:27.682Z,95177.44
2023-01-12T14:35:57.440Z,95188.78
2023-01-12T14:38:27.641Z,95175.94
2023-01-12T14:41:06.827Z,95169.16
2023-01-12T14:43:54.104Z,95166.84
2023-01-12T14:46:31.012Z,95154.78
2023-01-12T14:49:17.422Z,95150.00
2023-01-12T14:52:17.254Z,95155.38
2023-01-12T14:54:45.077Z,95158.69
2023-01-12T14:57:30.989Z,95155.56
2023-01-12T14:59:57.804Z,95149.72
2023-01-12T15:02:31.036Z,95146.88
2023-01-12T15:05:04.492Z,95145.81
2023-01-12T15:07:37.745Z,95145.50
2023-01-12T15:10:24.533Z,95150.06
2023-01-12T15:12:54.377Z,95148.16
2023-01-12T15:15:25.527Z,95157.16
2023-01-12T15:18:13.469Z,95142.84
2023-01-12T15:21:01.009Z,95161.13
2023-01-12T15:23:50.270Z,95155.00
2023-01-12T15:26:17.036Z,95149.00
2023-01-12T15:28:44.796Z,95148.44
2023-01-12T15:31:21.474Z,95143.75
2023-01-12T15:33:48.322Z,95140.50
2023-01-12T15:36:14.958Z,95142.72
2023-01-12T15:38:41.573Z,95140.78
2023-01-12T15:41:15.795Z,95150.22
2023-01-12T15:43:42.370Z,95152.53
2023-01-12T15:46:18.101Z,95150.53
2023-01-12T15:48:44.709Z,95153.16
2023-01-12T15:51:15.877Z,95160.88
2023-01-12T15:53:45.192Z,95153.13
2023-01-12T15:56:15.901Z,95166.81
2023-01-12T15:58:43.673Z,95155.38
2023-01-12T16:01:19.819Z,95160.53
2023-01-12T16:04:15.044Z,95170.72
2023-01-12T16:06:37.832Z,95164.31
2023-01-12T16:09:06.223Z,95167.50
2023-01-12T16:11:33.950Z,95159.59
2023-01-12T16:14:01.653Z,95160.78
2023-01-12T16:16:29.345Z,95158.50
2023-01-12T16:19:00.194Z,95151.97
2023-01-12T16:21:29.233Z,95170.34
2023-01-12T16:23:58.514Z,95158.50
2023-01-12T16:26:30.171Z,95144.94
2023-01-12T16:28:58.570Z,95149.81
2023-01-12T16:31:27.079Z,95168.78
2023-01-12T16:33:54.814Z,95146.50
2023-01-12T16:36:22.882Z,95139.13
2023-01-12T16:38:51.684Z,95145.88
2023-01-12T16:41:20.040Z,95142.00
2023-01-12T16:43:48.041Z,95133.94
2023-01-12T16:46:16.634Z,95137.19
2023-01-12T16:48:44.104Z,95142.31
2023-01-12T16:51:14.637Z,95151.75
2023-01-12T16:53:47.014Z,95144.28
2023-01-12T16:56:16.279Z,95140.50
2023-01-12T16:58:48.827Z,95143.38
2023-01-12T17:01:19.137Z,95135.97
2023-01-12T17:03:46.185Z,95135.06
2023-01-12T17:06:15.515Z,95131.81
2023-01-12T17:08:42.889Z,95123.09
2023-01-12T17:11:12.380Z,95121.34
2023-01-12T17:13:39.648Z,95125.34
2023-01-12T17:16:11.556Z,95128.75
2023-01-12T17:18:39.454Z,95122.59
2023-01-12T17:21:09.369Z,95126.63
2023-01-12T17:23:36.222Z,95125.97
2023-01-12T17:26:05.670Z,95136.72
2023-01-12T17:28:35.003Z,95123.66
2023-01-12T17:31:09.535Z,95125.47
2023-01-12T17:33:37.267Z,95129.53
2023-01-12T17:36:08.793Z,95124.75
2023-01-12T17:38:37.052Z,95117.09
2023-01-12T17:41:33.931Z,95115.22
2023-01-12T17:44:02.461Z,95112.59
2023-01-12T17:46:29.902Z,95106.44
2023-01-12T17:49:01.553Z,95109.97
2023-01-12T17:51:28.437Z,95103.09
2023-01-12T17:53:56.259Z,95098.34
2023-01-12T17:56:24.376Z,95090.84
2023-01-12T17:58:52.443Z,95087.06
2023-01-12T18:01:22.190Z,95083.94
2023-01-12T18:03:48.907Z,95092.78
2023-01-12T18:06:25.942Z,95087.66
2023-01-12T18:08:55.145Z,95087.75
2023-01-12T18:11:22.341Z,95087.19
2023-01-12T18:13:48.939Z,95078.88
2023-01-12T18:16:16.746Z,95082.00
2023-01-12T18:18:44.150Z,95079.25
2023-01-12T18:21:26.149Z,95079.38
2023-01-12T18:23:53.643Z,95085.56
2023-01-12T18:26:25.208Z,95077.75
2023-01-12T18:28:56.099Z,95070.34
2023-01-12T18:31:25.396Z,95066.81
2023-01-12T18:33:55.287Z,95069.03
2023-01-12T18:36:24.765Z,95070.47
2023-01-12T18:38:53.806Z,95065.34
2023-01-12T18:41:40.834Z,95058.16
2023-01-12T18:44:08.815Z,95059.81
2023-01-12T18:46:57.476Z,95049.28
2023-01-12T18:49:26.747Z,95048.94
2023-01-12T18:52:11.927Z,95049.69
2023-01-12T18:54:44.129Z,95053.56
2023-01-12T18:57:12.793Z,95038.53
2023-01-12T18:59:41.693Z,95042.41
2023-01-12T19:02:11.911Z,95034.41
2023-01-12T19:05:01.870Z,95035.66
2023-01-12T19:07:31.743Z,95040.28
2023-01-12T19:09:59.294Z,95032.25
2023-01-12T19:12:26.908Z,95028.66
2023-01-12T19:15:12.096Z,95022.59
2023-01-12T19:17:42.138Z,95014.91
2023-01-12T19:20:14.298Z,95015.50
2023-01-12T19:22:59.404Z,95011.53
2023-01-12T19:25:45.414Z,95008.66
2023-01-12T19:28:32.764Z,95011.22
2023-01-12T19:31:01.168Z,95010.00
2023-01-12T19:33:28.104Z,95009.03
2023-01-12T19:35:54.785Z,95014.28
2023-01-12T19:38:21.673Z,95021.91
2023-01-12T19:40:48.260Z,95017.97
2023-01-12T19:43:25.180Z,95018.84
2023-01-12T19:45:54.448Z,95014.34
2023-01-12T19:48:23.592Z,95018.78
2023-01-12T19:50:51.166Z,95006.84
2023-01-12T19:53:20.992Z,95003.41
2023-01-12T19:55:49.984Z,94999.78
2023-01-12T19:58:16.630Z,94996.22
2023-01-12T20:00:45.035Z,94983.09
2023-01-12T20:03:14.361Z,94986.75
2023-01-12T20:05:42.123Z,94989.00
2023-01-12T20:08:09.665Z,94987.72
2023-01-12T20:10:38.109Z,94985.19
2023-01-12T20:13:06.395Z,94987.94
2023-01-12T20:15:34.311Z,94981.81
2023-01-12T20:18:03.041Z,94977.19
2023-01-12T20:20:30.197Z,94979.97
2023-01-12T20:22:57.334Z,94973.94
2023-01-12T20:25:27.262Z,94986.59
2023-01-12T20:27:54.720Z,94969.97
2023-01-12T20:30:36.814Z,94974.16
2023-01-12T20:33:04.927Z,94977.28
2023-01-12T20:35:32.380Z,94971.69
2023-01-12T20:37:59.009Z,94972.47
2023-01-12T20:40:25.641Z,94970.16
2023-01-12T20:42:52.282Z,94965.25
2023-01-12T20:45:19.058Z,94958.28
2023-01-12T20:47:45.877Z,94960.22
2023-01-12T20:50:14.079Z,94951.63
2023-01-12T20:52:41.558Z,94951.03
2023-01-12T20:55:08.723Z,94948.91
2023-01-12T20:57:41.677Z,94950.75
2023-01-12T21:00:10.604Z,94954.72
2023-01-12T21:02:37.824Z,94962.19
2023-01-12T21:05:04.800Z,94958.94
2023-01-12T21:07:31.595Z,94958.38
2023-01-12T21:09:58.223Z,94954.03
2023-01-12T21:12:27.392Z,94961.06
2023-01-12T21:14:54.445Z,94957.63
2023-01-12T21:17:21.557Z,94965.72
2023-01-12T21:19:48.297Z,94971.94
2023-01-12T21:22:15.110Z,94975.53
2023-01-12T21:24:41.787Z,94978.97
2023-01-12T21:27:08.393Z,94970.41
2023-01-12T21:29:35.286Z,94983.22
2023-01-12T21:32:01.980Z,94975.53
2023-01-12T21:34:28.588Z,94986.91
2023-01-12T21:36:55.190Z,94990.09
2023-01-12T21:39:21.747Z,94984.97
2023-01-12T21:42:06.902Z,94988.56
2023-01-12T21:44:33.458Z,94980.31
2023-01-12T21:47:00.072Z,94986.63
2023-01-12T21:49:26.655Z,94986.25
2023-01-12T21:51:53.225Z,94990.66
2023-01-12T21:54:19.896Z,94982.22
2023-01-12T21:56:46.488Z,94981.88
2023-01-12T21:59:13.213Z,94974.91
2023-01-12T22:01:39.965Z,94978.25
2023-01-12T22:04:06.764Z,94973.25
2023-01-12T22:06:33.401Z,94978.13
2023-01-12T22:08:59.954Z,94966.75
2023-01-12T22:11:26.642Z,94972.94
2023-01-12T22:13:53.229Z,94970.59
2023-01-12T22:16:19.933Z,94974.69
2023-01-12T22:18:52.432Z,94970.69
2023-01-12T22:21:20.850Z,94973.50
2023-01-12T22:23:47.949Z,94973.72
2023-01-12T22:26:16.304Z,94975.50
2023-01-12T22:28:44.603Z,94972.50
2023-01-12T22:31:13.331Z,94972.47
2023-01-12T22:33:43.157Z,94952.28
2023-01-12T22:36:09.853Z,94950.84
2023-01-12T22:38:36.470Z,94947.88
2023-01-12T22:41:05.024Z,94946.22
2023-01-12T22:43:31.788Z,94957.84
2023-01-12T22:45:58.440Z,94946.09
2023-01-12T22:48:25.952Z,94948.00
2023-01-12T22:50:55.923Z,94949.88
2023-01-12T22:53:24.049Z,94951.78
2023-01-12T22:55:51.720Z,94946.72
2023-01-12T22:58:18.755Z,94956.19
2023-01-12T23:00:45.643Z,94950.25
2023-01-12T23:03:13.703Z,94945.69
2023-01-12T23:05:49.247Z,94934.38
2023-01-12T23:08:16.593Z,94952.16
2023-01-12T23:10:44.267Z,94951.91
2023-01-12T23:13:19.306Z,94955.44
2023-01-12T23:15:53.344Z,94954.31
2023-01-12T23:18:22.219Z,94965.25
2023-01-12T23:20:49.364Z,94957.44
2023-01-12T23:23:18.104Z,94949.63
2023-01-12T23:25:46.609Z,94953.16
2023-01-12T23:28:14.390Z,94945.72
2023-01-12T23:30:41.131Z,94949.91
2023-01-12T23:33:07.857Z,94954.72
2023-01-12T23:35:39.860Z,94948.13
2023-01-12T23:38:07.677Z,94931.50
2023-01-12T23:40:34.230Z,94943.41
2023-01-12T23:43:01.448Z,94932.69
2023-01-12T23:45:28.401Z,94929.19
2023-01-12T23:47:55.058Z,94924.78
2023-01-12T23:50:21.643Z,94932.31
2023-01-12T23:52:50.017Z,94929.91
2023-01-12T23:55:17.179Z,94921.53
2023-01-12T23:57:47.269Z,94920.72
